Time;durP1;ratioP1;P1;durP2;ratioP2;P2;SDS_P1;SDS_P2;PMS_P1;PMS_P2;Temp;Humidity;BMP_temperature;BMP_pressure;BME280_temperature;BME280_humidity;BME280_pressure;Samples;Min_cycle;Max_cycle;Signal;HPM_P1;HPM_P2
2022/09/18 00:01:26;;;;;;;4.62;3.45;;;;;;;13.77;85.45;98658.01;1542998;91;21085;-68
2022/09/18 00:03:56;;;;;;;4.97;3.83;;;;;;;13.76;85.43;98663.00;1543883;91;21118;-68
2022/09/18 00:06:29;;;;;;;5.30;3.58;;;;;;;13.74;85.43;98655.73;1541355;91;21847;-70
2022/09/18 00:08:57;;;;;;;4.72;3.30;;;;;;;13.76;85.48;98657.69;1542491;91;20995;-68
2022/09/18 00:11:27;;;;;;;5.08;4.00;;;;;;;13.74;85.49;98636.66;1545102;92;21520;-70
2022/09/18 00:13:57;;;;;;;4.30;3.67;;;;;;;13.72;85.44;98632.05;1547422;91;21478;-69
2022/09/18 00:16:24;;;;;;;6.00;4.00;;;;;;;13.72;85.49;98629.39;1545558;91;21088;-69
2022/09/18 00:18:54;;;;;;;6.83;4.22;;;;;;;13.74;85.52;98611.45;1518320;91;21969;-70
2022/09/18 00:21:26;;;;;;;6.62;4.28;;;;;;;13.74;85.51;98620.73;1517492;92;20999;-69
2022/09/18 00:23:58;;;;;;;7.20;4.20;;;;;;;13.73;85.51;98612.45;1514659;93;21110;-68
2022/09/18 00:26:26;;;;;;;6.03;4.80;;;;;;;13.73;85.52;98617.77;1495991;93;21078;-71
2022/09/18 00:28:56;;;;;;;7.83;4.22;;;;;;;13.73;85.57;98607.15;1520248;93;21028;-69
2022/09/18 00:31:29;;;;;;;6.67;4.85;;;;;;;13.73;85.53;98601.84;1516885;93;21791;-69
2022/09/18 00:33:59;;;;;;;7.55;5.03;;;;;;;13.69;85.53;98592.59;1525258;93;21075;-69
2022/09/18 00:36:30;;;;;;;9.43;5.22;;;;;;;13.64;85.57;98588.86;1520832;92;21082;-69
2022/09/18 00:39:01;;;;;;;7.60;5.33;;;;;;;13.63;85.67;98584.57;1518541;93;21063;-70
2022/09/18 00:41:31;;;;;;;8.05;5.20;;;;;;;13.50;86.23;98589.69;1513387;93;21487;-69
2022/09/18 00:44:43;;;;;;;8.85;5.15;;;;;;;13.45;86.57;98599.53;1508475;93;21955;-68
2022/09/18 00:47:20;;;;;;;6.27;5.03;;;;;;;13.45;86.76;98599.03;1514400;93;21055;-69
2022/09/18 00:50:04;;;;;;;7.28;5.40;;;;;;;13.45;86.91;98575.66;1514908;93;21611;-69
2022/09/18 00:52:57;;;;;;;8.53;5.97;;;;;;;13.45;86.97;98572.51;1502433;92;21166;-70
2022/09/18 00:55:32;;;;;;;9.88;5.62;;;;;;;13.46;87.11;98573.33;1517613;93;21199;-69
2022/09/18 00:58:01;;;;;;;6.97;5.72;;;;;;;13.48;87.15;98571.30;1521575;93;22770;-69
2022/09/18 01:00:30;;;;;;;9.95;5.70;;;;;;;13.52;87.15;98564.64;1515905;93;21125;-69
2022/09/18 01:03:00;;;;;;;10.43;5.58;;;;;;;13.54;87.21;98559.97;1515509;93;21007;-70
2022/09/18 01:05:44;;;;;;;7.03;5.83;;;;;;;13.55;87.21;98546.20;1512089;93;21075;-69
2022/09/18 01:08:24;;;;;;;8.45;6.10;;;;;;;13.53;87.26;98546.39;1512380;93;21106;-70
2022/09/18 01:11:05;;;;;;;8.33;6.28;;;;;;;13.52;87.29;98541.28;1520260;93;21936;-68
2022/09/18 01:16:30;;;;;;;9.38;6.22;;;;;;;13.55;87.37;98533.77;1512960;93;21095;-70
2022/09/18 01:19:27;;;;;;;9.10;6.62;;;;;;;13.57;87.39;98527.77;1525355;92;21071;-68
2022/09/18 01:21:59;;;;;;;9.03;6.70;;;;;;;13.57;87.34;98534.89;1516106;92;21087;-70
2022/09/18 01:24:52;;;;;;;9.33;6.92;;;;;;;13.54;87.35;98520.19;1552590;90;22500;-69
2022/09/18 01:28:00;;;;;;;9.53;7.08;;;;;;;13.52;87.43;98516.91;1538476;90;21071;-69
2022/09/18 01:30:27;;;;;;;13.08;6.83;;;;;;;13.51;87.53;98512.61;1552472;90;21560;-69
2022/09/18 01:32:57;;;;;;;13.22;7.75;;;;;;;13.54;87.59;98510.08;1555474;90;21095;-68
2022/09/18 01:35:35;;;;;;;14.85;6.80;;;;;;;13.55;87.56;98490.50;1563670;89;21020;-68
2022/09/18 01:38:06;;;;;;;11.03;6.70;;;;;;;13.56;87.58;98495.62;1566685;90;21817;-70
2022/09/18 01:40:59;;;;;;;10.48;7.25;;;;;;;13.57;87.52;98489.30;1554489;90;21059;-73
2022/09/18 01:43:29;;;;;;;10.58;7.12;;;;;;;13.58;87.53;98479.00;1554865;90;21008;-70
2022/09/18 01:46:06;;;;;;;11.15;7.28;;;;;;;13.60;87.56;98469.02;1546070;92;21412;-70
2022/09/18 01:48:56;;;;;;;12.98;7.10;;;;;;;13.62;87.56;98466.20;1554540;92;21462;-69
2022/09/18 01:51:30;;;;;;;11.48;6.80;;;;;;;13.62;87.53;98463.05;1552411;90;21899;-70
2022/09/18 01:54:01;;;;;;;;;;;;;;;13.61;87.52;98448.65;1548806;90;21048;-70
2022/09/18 01:56:37;;;;;;;15.83;7.45;;;;;;;13.60;87.60;98444.33;1552864;90;20165;-70
2022/09/18 01:59:19;;;;;;;13.18;7.12;;;;;;;13.60;87.64;98445.66;1519169;92;22397;-68
2022/09/18 02:01:50;;;;;;;18.25;7.33;;;;;;;13.59;87.69;98440.03;1552818;90;21085;-68
2022/09/18 02:04:22;;;;;;;10.00;7.33;;;;;;;13.59;87.77;98427.59;1550152;90;21917;-70
2022/09/18 02:07:04;;;;;;;11.95;7.50;;;;;;;13.60;87.81;98423.11;1544574;90;21070;-69
2022/09/18 02:09:32;;;;;;;14.85;8.00;;;;;;;13.60;87.77;98429.23;1551444;90;21121;-69
2022/09/18 02:11:59;;;;;;;12.05;8.08;;;;;;;13.60;87.72;98434.53;1551115;90;22269;-73
2022/09/18 02:14:37;;;;;;;12.88;8.70;;;;;;;13.60;87.76;98425.76;1550052;90;21080;-69
2022/09/18 02:17:11;;;;;;;11.70;7.67;;;;;;;13.59;87.80;98417.48;1534738;90;21809;-69
2022/09/18 02:19:42;;;;;;;15.20;8.20;;;;;;;13.57;87.88;98412.88;1542447;90;21059;-67
2022/09/18 02:22:13;;;;;;;12.68;8.30;;;;;;;13.57;87.96;98407.07;1540183;91;21072;-69
2022/09/18 02:27:17;;;;;;;12.68;8.65;;;;;;;13.57;88.07;98406.25;1544440;91;21000;-68
2022/09/18 02:29:44;;;;;;;16.15;8.83;;;;;;;13.56;88.14;98410.73;1541193;91;22473;-68
2022/09/18 02:32:12;;;;;;;14.73;8.60;;;;;;;13.58;88.21;98410.03;1544346;91;21064;-70
2022/09/18 02:34:40;;;;;;;14.33;8.93;;;;;;;13.58;88.21;98407.89;1542334;91;21515;-71
2022/09/18 02:37:44;;;;;;;12.82;7.90;;;;;;;13.57;88.28;98412.88;1526739;91;21147;-70
2022/09/18 02:40:45;;;;;;;11.83;8.90;;;;;;;13.57;88.34;98409.72;1543257;91;21171;-69
2022/09/18 02:43:41;;;;;;;13.65;8.70;;;;;;;13.56;88.33;98404.61;1542527;91;21807;-69
2022/09/18 02:46:32;;;;;;;14.83;9.00;;;;;;;13.57;88.44;98404.42;1542280;91;21108;-70
2022/09/18 02:49:35;;;;;;;12.95;8.95;;;;;;;13.59;88.45;98403.72;1536277;91;21078;-69
2022/09/18 02:52:06;;;;;;;14.15;9.18;;;;;;;13.60;88.45;98401.89;1538884;91;21139;-70
2022/09/18 02:54:51;;;;;;;18.77;8.68;;;;;;;13.61;88.48;98385.80;1543758;91;21036;-69
2022/09/18 02:57:37;;;;;;;14.13;8.88;;;;;;;13.63;88.38;98373.67;1536912;91;22621;-68
2022/09/18 03:00:10;;;;;;;11.80;8.98;;;;;;;13.59;88.50;98373.21;1540636;91;21081;-69
2022/09/18 03:02:36;;;;;;;14.50;9.23;;;;;;;13.62;88.59;98380.81;1510472;91;21632;-68
2022/09/18 03:05:05;;;;;;;18.10;9.33;;;;;;;13.63;88.57;98373.17;1538604;91;21008;-69
2022/09/18 03:07:38;;;;;;;12.25;8.85;;;;;;;13.65;88.56;98362.36;1541048;91;21125;-72
2022/09/18 03:10:07;;;;;;;14.38;9.08;;;;;;;13.65;88.51;98352.56;1548456;91;21765;-74
2022/09/18 03:12:35;;;;;;;13.85;9.25;;;;;;;13.66;88.55;98348.08;1543168;91;21106;-69
2022/09/18 03:15:03;;;;;;;13.25;9.05;;;;;;;13.65;88.54;98341.95;1548000;91;21097;-69
2022/09/18 03:17:34;;;;;;;16.77;9.35;;;;;;;13.65;88.53;98337.16;1549018;89;21942;-69
2022/09/18 03:20:03;;;;;;;20.10;9.08;;;;;;;13.66;88.55;98337.47;1546370;91;21080;-71
2022/09/18 03:22:31;;;;;;;17.37;9.45;;;;;;;13.67;88.59;98340.44;1542624;91;21935;-71
2022/09/18 03:24:57;;;;;;;32.88;9.28;;;;;;;13.68;88.65;98332.79;1540258;91;21028;-69
2022/09/18 03:30:00;;;;;;;19.00;9.38;;;;;;;13.65;88.68;98315.42;1539866;91;21073;-71
2022/09/18 03:32:29;;;;;;;17.23;9.08;;;;;;;13.67;88.71;98313.40;1547911;91;21144;-70
2022/09/18 03:34:55;;;;;;;28.45;9.35;;;;;;;13.69;88.71;98310.05;1543113;91;21953;-70
2022/09/18 03:37:23;;;;;;;14.65;9.48;;;;;;;13.69;88.68;98311.37;1543880;91;21095;-70
2022/09/18 03:39:49;;;;;;;21.35;9.03;;;;;;;13.70;88.66;98314.84;1555866;91;21064;-72
2022/09/18 03:42:16;;;;;;;20.12;9.65;;;;;;;13.69;88.69;98321.98;1541857;91;21109;-69
2022/09/18 03:44:43;;;;;;;16.90;9.53;;;;;;;13.70;88.77;98332.08;1546686;91;21077;-68
2022/09/18 03:47:20;;;;;;;12.25;9.48;;;;;;;13.72;88.83;98339.37;1539187;91;22520;-69
2022/09/18 03:49:47;;;;;;;26.00;9.68;;;;;;;13.73;88.81;98344.98;1539466;91;22220;-68
2022/09/18 03:52:14;;;;;;;19.55;9.93;;;;;;;13.74;88.83;98350.61;1540798;91;21084;-68
2022/09/18 03:54:47;;;;;;;19.30;9.63;;;;;;;13.73;88.83;98350.30;1541346;91;21031;-68
2022/09/18 03:57:35;;;;;;;22.55;10.15;;;;;;;13.75;88.86;98349.59;1537900;91;21060;-69
2022/09/18 04:00:09;;;;;;;25.02;10.15;;;;;;;13.76;88.91;98343.27;1527407;91;22574;-69
2022/09/18 04:02:42;;;;;;;25.00;10.23;;;;;;;13.78;88.95;98336.44;1544777;91;21065;-68
2022/09/18 04:05:23;;;;;;;22.37;10.08;;;;;;;13.79;88.95;98334.92;1518251;91;21116;-69
2022/09/18 04:08:09;;;;;;;28.70;10.72;;;;;;;13.80;88.96;98331.75;1542554;91;21536;-72
2022/09/18 04:10:43;;;;;;;14.75;10.63;;;;;;;13.82;88.99;98324.45;1538867;91;20957;-73
2022/09/18 04:13:10;;;;;;;23.77;10.75;;;;;;;13.83;88.98;98324.76;1522161;92;21915;-70
2022/09/18 04:15:38;;;;;;;24.18;10.88;;;;;;;13.85;88.96;98317.42;1537880;91;21031;-70
2022/09/18 04:18:05;;;;;;;35.45;11.05;;;;;;;13.86;88.98;98312.42;1541674;91;21119;-71
2022/09/18 04:20:32;;;;;;;28.47;10.90;;;;;;;13.88;88.92;98302.42;1541412;91;21128;-70
2022/09/18 04:23:01;;;;;;;22.37;10.68;;;;;;;13.89;88.92;98293.45;1545532;91;21095;-70
2022/09/18 04:25:28;;;;;;;19.77;10.78;;;;;;;13.88;88.95;98295.80;1540225;91;21979;-70
2022/09/18 04:27:56;;;;;;;29.30;11.53;;;;;;;13.88;88.97;98290.48;1545268;91;21010;-71
2022/09/18 04:30:23;;;;;;;40.60;10.32;;;;;;;13.88;88.98;98286.50;1519671;91;21184;-70
2022/09/18 04:32:50;;;;;;;23.07;11.15;;;;;;;13.90;89.00;98285.83;1542770;91;22156;-70
2022/09/18 04:35:17;;;;;;;21.20;11.12;;;;;;;13.88;88.97;98289.16;1544629;91;21089;-70
2022/09/18 04:40:22;;;;;;;21.15;11.65;;;;;;;13.89;89.04;98284.16;1543448;91;21147;-70
2022/09/18 04:42:51;;;;;;;31.52;11.00;;;;;;;13.90;89.05;98287.16;1542644;91;21065;-70
2022/09/18 04:45:17;;;;;;;35.28;11.93;;;;;;;13.91;89.05;98286.95;1549327;91;21046;-70
2022/09/18 04:47:46;;;;;;;27.52;11.83;;;;;;;13.93;89.07;98278.80;1544837;91;21061;-70
2022/09/18 04:50:13;;;;;;;24.57;12.82;;;;;;;13.95;89.11;98288.70;1545128;91;21917;-71
2022/09/18 04:52:43;;;;;;;68.25;12.40;;;;;;;13.98;89.17;98297.59;1536405;91;21511;-69
2022/09/18 04:55:10;;;;;;;48.15;12.58;;;;;;;13.98;89.20;98286.98;1540692;91;21667;-70
2022/09/18 04:57:37;;;;;;;35.78;12.28;;;;;;;14.00;89.22;98284.47;1545276;91;21016;-70
2022/09/18 05:00:08;;;;;;;41.18;11.97;;;;;;;14.02;89.23;98282.94;1544564;91;21013;-69
2022/09/18 05:02:37;;;;;;;19.67;12.23;;;;;;;14.02;89.22;98271.81;1545157;91;21796;-69
2022/09/18 05:05:06;;;;;;;31.35;12.15;;;;;;;14.03;89.18;98277.44;1544783;91;21096;-71
2022/09/18 05:07:34;;;;;;;44.88;12.25;;;;;;;14.05;89.19;98277.23;1523856;91;21523;-69
2022/09/18 05:10:02;;;;;;;33.80;12.40;;;;;;;14.06;89.23;98269.58;1540915;91;21072;-69
2022/09/18 05:12:40;;;;;;;38.05;12.50;;;;;;;14.08;89.24;98267.54;1526814;91;21190;-68
2022/09/18 05:17:43;;;;;;;27.02;12.40;;;;;;;14.13;89.23;98257.68;1543024;91;21239;-69
2022/09/18 05:20:10;;;;;;;37.45;12.25;;;;;;;14.30;88.56;98259.82;1514838;93;21080;-69
2022/09/18 05:22:38;;;;;;;54.77;13.38;;;;;;;14.17;88.91;98246.45;1543406;91;21095;-69
2022/09/18 05:25:08;;;;;;;25.82;12.70;;;;;;;14.15;89.17;98236.55;1541207;91;21152;-69
2022/09/18 05:27:35;;;;;;;17.67;12.70;;;;;;;14.16;89.25;98232.06;1544391;91;21973;-71
2022/09/18 05:30:05;;;;;;;48.80;12.82;;;;;;;14.16;89.33;98217.45;1540975;91;21069;-71
2022/09/18 05:32:34;;;;;;;47.17;12.63;;;;;;;14.19;89.43;98219.23;1524352;93;21005;-70
2022/09/18 05:35:01;;;;;;;36.17;13.68;;;;;;;14.21;89.41;98213.72;1543651;91;21108;-69
2022/09/18 05:37:28;;;;;;;39.75;12.63;;;;;;;14.20;89.40;98212.90;1541654;91;21026;-69
2022/09/18 05:39:55;;;;;;;20.62;12.90;;;;;;;14.23;89.50;98199.73;1537872;91;23026;-69
2022/09/18 05:42:22;;;;;;;29.98;13.48;;;;;;;14.41;89.12;98205.83;1544446;91;21113;-70
2022/09/18 05:44:48;;;;;;;26.75;13.25;;;;;;;14.52;88.77;98210.59;1544388;91;21149;-69
2022/09/18 05:47:17;;;;;;;97.25;15.18;;;;;;;14.47;89.07;98205.86;1539341;91;21073;-70
2022/09/18 05:49:43;;;;;;;29.12;13.83;;;;;;;14.60;88.64;98203.27;1535522;91;21007;-70
2022/09/18 05:52:10;;;;;;;25.88;14.07;;;;;;;14.63;88.45;98198.05;1559060;91;21942;-69
2022/09/18 05:54:38;;;;;;;38.42;14.65;;;;;;;14.63;88.39;98199.38;1539703;92;21129;-69
2022/09/18 05:57:05;;;;;;;53.87;14.38;;;;;;;14.67;88.47;98204.61;1544556;93;21151;-69
2022/09/18 05:59:32;;;;;;;61.65;14.40;;;;;;;14.70;88.45;98201.55;1539076;92;21303;-69
2022/09/18 06:01:59;;;;;;;39.05;13.95;;;;;;;14.72;88.44;98197.36;1530231;91;21139;-69
2022/09/18 06:04:44;;;;;;;29.87;14.15;;;;;;;14.74;88.44;98193.47;1533995;91;22668;-68
2022/09/18 06:07:15;;;;;;;22.17;14.60;;;;;;;14.75;88.29;98200.42;1548303;91;21061;-68
2022/09/18 06:09:41;;;;;;;37.42;15.65;;;;;;;14.77;88.30;98197.58;1545326;91;21116;-68
2022/09/18 06:12:08;;;;;;;33.83;19.17;;;;;;;14.80;88.24;98195.84;1544370;91;21088;-68
2022/09/18 06:14:35;;;;;;;29.55;18.07;;;;;;;14.83;88.27;98198.91;1544572;91;21024;-70
2022/09/18 06:17:02;;;;;;;25.37;15.80;;;;;;;14.87;88.42;98205.98;1544250;93;21980;-73
2022/09/18 06:19:30;;;;;;;29.25;15.78;;;;;;;14.95;88.48;98198.30;1546108;91;21173;-69
2022/09/18 06:21:59;;;;;;;35.30;15.95;;;;;;;14.99;88.46;98209.67;1547828;90;22279;-70
2022/09/18 06:24:26;;;;;;;34.92;15.50;;;;;;;15.05;88.47;98202.70;1558570;91;21064;-69
2022/09/18 06:27:06;;;;;;;30.43;16.40;;;;;;;15.10;88.47;98199.77;1555084;90;21050;-69
2022/09/18 06:29:34;;;;;;;33.70;16.37;;;;;;;15.13;88.44;98191.88;1549837;90;21948;-71
2022/09/18 06:32:19;;;;;;;;;;;;;;;15.18;88.47;98184.12;1554047;91;21435;-70
2022/09/18 06:34:47;;;;;;;29.72;16.77;;;;;;;15.23;88.54;98194.95;1523331;92;20276;-69
2022/09/18 06:37:15;;;;;;;31.57;16.65;;;;;;;15.28;88.62;98193.02;1552463;91;21101;-69
2022/09/18 06:39:42;;;;;;;24.45;15.75;;;;;;;15.38;88.86;98192.09;1552988;90;21086;-69
2022/09/18 06:42:10;;;;;;;30.65;19.25;;;;;;;15.43;88.82;98194.42;1554120;91;22468;-69
2022/09/18 06:44:45;;;;;;;36.35;21.35;;;;;;;15.46;88.75;98183.39;1550121;91;21073;-69
2022/09/18 06:47:12;;;;;;;40.50;23.67;;;;;;;15.52;88.70;98183.58;1548002;91;21093;-69
2022/09/18 06:49:41;;;;;;;49.00;27.52;;;;;;;15.60;88.78;98181.55;1549863;91;21135;-69
2022/09/18 06:52:08;;;;;;;47.03;26.70;;;;;;;15.64;88.68;98177.47;1548356;91;21061;-70
2022/09/18 06:54:36;;;;;;;47.08;26.87;;;;;;;15.72;88.82;98168.42;1546599;92;21916;-69
2022/09/18 06:57:06;;;;;;;50.20;28.73;;;;;;;15.82;88.94;98159.48;1564698;90;21507;-70
2022/09/18 06:59:32;;;;;;;51.05;29.35;;;;;;;15.93;89.01;98156.72;1550104;91;21190;-69
2022/09/18 07:01:59;;;;;;;53.00;30.50;;;;;;;15.85;89.66;98160.94;1551407;91;21131;-69
2022/09/18 07:04:34;;;;;;;52.38;29.87;;;;;;;16.00;89.77;98153.49;1544603;91;21072;-69
2022/09/18 07:07:01;;;;;;;50.48;28.95;;;;;;;16.17;89.19;98143.19;1552182;90;21896;-70
2022/09/18 07:09:29;;;;;;;52.90;28.12;;;;;;;16.25;88.95;98145.10;1546811;90;21075;-70
2022/09/18 07:12:01;;;;;;;48.80;27.87;;;;;;;16.32;88.74;98150.41;1551437;90;21140;-70
2022/09/18 07:14:36;;;;;;;65.47;36.17;;;;;;;16.35;88.51;98142.49;1552685;90;21028;-69
2022/09/18 07:17:09;;;;;;;75.32;38.13;;;;;;;16.40;88.35;98147.98;1552235;90;22080;-70
2022/09/18 07:19:36;;;;;;;79.87;40.33;;;;;;;16.45;88.28;98151.66;1557916;90;22316;-69
2022/09/18 07:22:04;;;;;;;84.52;41.58;;;;;;;16.49;88.13;98160.84;1544619;91;21123;-68
2022/09/18 07:24:35;;;;;;;85.40;42.85;;;;;;;16.52;88.05;98153.77;1530893;91;21043;-69
2022/09/18 07:27:02;;;;;;;85.70;44.38;;;;;;;16.57;87.97;98154.45;1550325;91;21035;-68
2022/09/18 07:29:31;;;;;;;95.83;47.15;;;;;;;16.65;88.11;98162.72;1539620;91;21095;-70
2022/09/18 07:32:01;;;;;;;100.85;47.67;;;;;;;16.73;88.20;98153.98;1537391;91;21839;-72
2022/09/18 07:34:30;;;;;;;85.50;43.40;;;;;;;16.83;88.25;98140.17;1528169;91;21466;-70
2022/09/18 07:36:58;;;;;;;81.15;41.83;;;;;;;16.94;88.27;98133.32;1536931;91;21134;-72
2022/09/18 07:39:25;;;;;;;72.95;40.90;;;;;;;17.02;88.22;98131.20;1542443;91;22145;-72
2022/09/18 07:41:56;;;;;;;64.07;36.80;;;;;;;17.11;88.19;98126.42;1493101;93;21139;-69
2022/09/18 07:44:24;;;;;;;58.90;34.27;;;;;;;17.20;88.06;98143.78;1531597;91;21948;-69
2022/09/18 07:46:54;;;;;;;44.05;28.67;;;;;;;17.26;87.92;98140.73;1518857;91;21101;-69
2022/09/18 07:49:21;;;;;;;42.27;27.30;;;;;;;17.36;87.96;98141.05;1533201;91;21087;-70
2022/09/18 07:51:48;;;;;;;36.15;23.50;;;;;;;17.41;87.86;98139.38;1528593;91;21093;-71
2022/09/18 07:54:15;;;;;;;37.45;23.20;;;;;;;17.50;87.74;98139.09;1536583;91;21645;-69
2022/09/18 07:56:55;;;;;;;30.57;20.95;;;;;;;17.52;87.48;98127.15;1530105;91;22039;-71
2022/09/18 07:59:24;;;;;;;27.98;18.62;;;;;;;17.57;87.29;98115.83;1519683;92;21182;-70
2022/09/18 08:01:54;;;;;;;25.23;16.93;;;;;;;17.61;87.21;98107.14;1531653;92;21106;-70
2022/09/18 08:04:23;;;;;;;21.93;15.98;;;;;;;17.70;87.29;98111.17;1536750;91;21118;-70
2022/09/18 08:07:08;;;;;;;18.48;13.68;;;;;;;17.77;87.22;98117.78;1536174;91;21102;-70
2022/09/18 08:09:53;;;;;;;17.05;13.10;;;;;;;17.88;87.28;98117.03;1530396;91;21971;-70
2022/09/18 08:12:27;;;;;;;14.40;11.50;;;;;;;17.95;86.95;98114.27;1532838;91;21178;-70
2022/09/18 08:15:10;;;;;;;13.78;11.43;;;;;;;17.97;86.70;98122.89;1509989;93;21114;-70
2022/09/18 08:17:45;;;;;;;14.98;11.70;;;;;;;18.01;86.58;98116.05;1520014;92;21609;-70
2022/09/18 08:20:14;;;;;;;17.45;11.38;;;;;;;18.06;86.36;98102.03;1540607;91;21114;-72
2022/09/18 08:22:43;;;;;;;15.60;11.60;;;;;;;18.07;85.99;98102.33;1546595;91;21840;-71
2022/09/18 08:25:10;;;;;;;13.48;11.03;;;;;;;18.11;86.10;98097.63;1553614;91;21160;-71
2022/09/18 08:27:38;;;;;;;13.70;11.15;;;;;;;18.16;85.97;98092.44;1544029;92;21134;-70
2022/09/18 08:30:07;;;;;;;13.90;10.78;;;;;;;18.17;85.71;98098.59;1542213;91;21113;-70
2022/09/18 08:32:35;;;;;;;14.85;11.12;;;;;;;18.20;85.71;98091.45;1540651;91;21160;-71
2022/09/18 08:35:05;;;;;;;18.10;14.45;;;;;;;18.20;85.58;98078.91;1556770;91;21827;-70
2022/09/18 08:37:33;;;;;;;16.57;11.90;;;;;;;18.22;85.55;98082.69;1556600;91;21130;-72
2022/09/18 08:40:22;;;;;;;12.58;11.25;;;;;;;18.27;85.69;98076.97;1547635;91;21055;-73
2022/09/18 08:43:38;;;;;;;12.73;9.73;;;;;;;18.34;85.75;98078.22;1543128;91;21051;-73
2022/09/18 08:46:13;;;;;;;13.15;11.53;;;;;;;18.43;85.93;98076.02;1560772;91;21080;-69
2022/09/18 08:49:16;;;;;;;13.05;10.75;;;;;;;18.50;85.80;98069.53;1573246;91;22007;-71
2022/09/18 08:51:49;;;;;;;12.05;10.78;;;;;;;18.55;85.69;98070.20;1538093;91;21596;-71
2022/09/18 08:54:39;;;;;;;12.63;10.38;;;;;;;18.59;85.58;98065.48;1544603;91;21543;-71
2022/09/18 08:57:22;;;;;;;11.25;10.03;;;;;;;18.65;85.65;98054.96;1518530;93;21112;-71
2022/09/18 09:00:01;;;;;;;11.65;10.53;;;;;;;18.74;85.78;98048.23;1548288;91;21078;-73
2022/09/18 09:02:39;;;;;;;14.63;12.07;;;;;;;18.86;85.98;98047.19;1527551;91;21786;-71
2022/09/18 09:05:15;;;;;;;11.88;10.40;;;;;;;19.02;86.29;98035.52;1544269;91;22250;-72
2022/09/18 09:07:58;;;;;;;12.15;10.75;;;;;;;19.26;86.57;98041.66;1542576;91;21374;-71
2022/09/18 09:10:37;;;;;;;11.60;10.03;;;;;;;19.47;86.33;98041.56;1544723;91;21068;-69
2022/09/18 09:13:36;;;;;;;9.75;8.75;;;;;;;19.66;85.88;98046.55;1545010;91;21537;-70
2022/09/18 09:16:15;;;;;;;15.68;13.95;;;;;;;19.81;85.66;98044.73;1558476;91;21873;-71
2022/09/18 09:18:59;;;;;;;28.90;22.67;;;;;;;19.93;84.96;98036.11;1543323;91;21652;-72
2022/09/18 09:21:45;;;;;;;41.05;33.28;;;;;;;20.04;84.66;98031.75;1546022;91;21098;-72
2022/09/18 09:24:33;;;;;;;14.07;12.58;;;;;;;20.24;84.93;98025.95;1556590;90;21969;-72
2022/09/18 09:27:22;;;;;;;11.08;9.78;;;;;;;20.56;85.19;98012.34;1549609;90;21031;-73
2022/09/18 09:30:04;;;;;;;11.20;10.00;;;;;;;20.92;84.32;98018.77;1498429;90;21974;-76
2022/09/18 09:33:01;;;;;;;12.07;9.50;;;;;;;21.19;81.97;98008.97;1556803;90;21169;-75
2022/09/18 09:35:48;;;;;;;10.20;9.10;;;;;;;21.37;80.27;98011.93;1555489;90;21414;-74
2022/09/18 09:38:51;;;;;;;10.45;9.35;;;;;;;21.42;78.94;98018.69;1556855;90;21127;-71
2022/09/18 09:41:26;;;;;;;12.82;11.22;;;;;;;21.40;78.31;98013.58;1559269;90;21114;-70
2022/09/18 09:44:19;;;;;;;19.80;15.88;;;;;;;21.38;77.73;98024.29;1556762;90;21858;-71
2022/09/18 09:47:24;;;;;;;17.40;15.50;;;;;;;21.35;77.35;98024.27;1563489;90;21036;-71
2022/09/18 09:50:26;;;;;;;13.93;11.08;;;;;;;21.33;77.20;98012.97;1555391;90;21051;-70
2022/09/18 09:52:56;;;;;;;16.67;12.60;;;;;;;21.34;77.28;98012.44;1555575;92;21543;-68
2022/09/18 09:55:27;;;;;;;14.00;11.80;;;;;;;21.38;77.45;98023.76;1556692;90;21131;-69
2022/09/18 09:58:22;;;;;;;13.85;11.55;;;;;;;21.41;77.34;98015.73;1553983;90;22675;-70
2022/09/18 10:01:19;;;;;;;37.85;33.92;;;;;;;21.43;77.46;98011.75;1554988;91;21604;-69
2022/09/18 10:04:08;;;;;;;26.00;23.30;;;;;;;21.42;77.43;97995.36;1565961;90;21434;-69
2022/09/18 10:06:55;;;;;;;16.93;15.32;;;;;;;21.43;77.50;98002.89;1524544;92;21049;-69
2022/09/18 10:09:55;;;;;;;12.58;10.78;;;;;;;21.36;77.53;97992.85;1540567;92;21467;-69
2022/09/18 10:12:33;;;;;;;19.77;15.18;;;;;;;21.28;77.59;97993.28;1552361;92;21966;-69
2022/09/18 10:15:19;;;;;;;54.15;48.90;;;;;;;21.21;77.87;97993.95;1553884;91;21084;-69
2022/09/18 10:17:49;;;;;;;18.32;16.52;;;;;;;21.13;78.20;97994.69;1560910;90;21056;-69
2022/09/18 10:20:20;;;;;;;13.85;11.88;;;;;;;21.06;78.64;97981.96;1555572;90;21135;-70
2022/09/18 10:22:46;;;;;;;16.60;11.80;;;;;;;21.04;79.14;97978.72;1552934;90;21194;-70
2022/09/18 10:25:31;;;;;;;12.33;10.43;;;;;;;21.04;79.77;97967.98;1544686;93;21921;-70
2022/09/18 10:27:58;;;;;;;11.78;10.58;;;;;;;21.07;80.31;97974.19;1544107;92;21060;-70
2022/09/18 10:30:24;;;;;;;13.43;12.03;;;;;;;21.11;80.55;97977.18;1544436;93;21080;-69
2022/09/18 10:32:52;;;;;;;13.53;11.10;;;;;;;21.13;80.61;97983.95;1544985;93;21102;-70
2022/09/18 10:35:41;;;;;;;14.23;12.25;;;;;;;21.12;80.61;97968.06;1544160;92;21565;-70
2022/09/18 10:38:29;;;;;;;16.52;14.87;;;;;;;21.13;80.43;97962.47;1544006;91;21943;-70
2022/09/18 10:41:32;;;;;;;11.97;8.20;;;;;;;21.16;80.40;97967.87;1545466;91;21142;-71
2022/09/18 10:44:27;;;;;;;11.83;8.20;;;;;;;21.14;79.25;97992.28;1544755;91;21095;-72
2022/09/18 10:47:13;;;;;;;8.48;6.50;;;;;;;21.12;78.45;98001.61;1544986;91;20999;-69
2022/09/18 10:50:14;;;;;;;4.65;3.80;;;;;;;21.01;77.97;98013.27;1536808;93;21100;-69
2022/09/18 10:52:47;;;;;;;3.65;2.92;;;;;;;20.74;76.52;98005.89;1544593;93;21920;-70
2022/09/18 10:55:21;;;;;;;3.98;3.52;;;;;;;20.52;76.34;97999.13;1562752;91;21004;-69
2022/09/18 10:58:04;;;;;;;4.10;3.52;;;;;;;20.38;76.19;98001.81;1544635;91;21100;-69
2022/09/18 11:00:37;;;;;;;5.30;4.40;;;;;;;20.33;76.79;98008.42;1546097;92;21525;-69
2022/09/18 11:03:36;;;;;;;5.10;4.70;;;;;;;20.24;76.32;98011.20;1545084;91;21031;-70
2022/09/18 11:06:22;;;;;;;6.78;5.40;;;;;;;20.14;76.69;98013.71;1544630;92;21869;-69
2022/09/18 11:08:52;;;;;;;9.68;6.45;;;;;;;20.11;77.31;98017.69;1544440;92;21577;-69
2022/09/18 11:11:35;;;;;;;9.50;7.45;;;;;;;20.21;78.23;98016.53;1545252;91;21107;-70
2022/09/18 11:14:16;;;;;;;8.23;7.03;;;;;;;20.46;77.85;98008.16;1544272;91;21499;-70
2022/09/18 11:16:49;;;;;;;10.35;7.20;;;;;;;20.85;77.20;98027.82;1544981;92;21029;-70
2022/09/18 11:19:30;;;;;;;9.15;7.72;;;;;;;21.24;76.44;98002.34;1544601;93;21950;-70
2022/09/18 11:22:05;;;;;;;7.53;6.75;;;;;;;21.60;74.41;97998.77;1545236;91;20922;-69
2022/09/18 11:24:36;;;;;;;10.65;7.25;;;;;;;21.89;72.91;98009.58;1552651;90;21586;-69
2022/09/18 11:27:21;;;;;;;7.92;7.10;;;;;;;22.00;71.16;98002.44;1556833;90;21042;-70
2022/09/18 11:29:48;;;;;;;11.25;9.45;;;;;;;22.06;70.87;97993.38;1576784;90;21099;-69
2022/09/18 11:32:30;;;;;;;10.13;6.50;;;;;;;22.23;71.30;98004.06;1555012;92;22400;-69
2022/09/18 11:35:03;;;;;;;8.65;7.00;;;;;;;22.46;70.50;97989.45;1554900;90;20992;-69
2022/09/18 11:37:37;;;;;;;7.30;6.60;;;;;;;22.66;70.06;97985.58;1544399;90;21058;-68
2022/09/18 11:40:16;;;;;;;7.70;5.70;;;;;;;22.74;69.64;97981.60;1527213;94;21068;-70
2022/09/18 11:42:45;;;;;;;6.78;6.08;;;;;;;22.69;68.94;97992.34;1527503;93;21062;-69
2022/09/18 11:45:32;;;;;;;7.97;5.90;;;;;;;22.46;68.35;98010.44;1538574;90;22649;-69
2022/09/18 11:48:28;;;;;;;6.03;5.10;;;;;;;22.14;68.40;98006.39;1550198;90;21025;-68
2022/09/18 11:51:00;;;;;;;6.35;5.75;;;;;;;21.73;68.16;98006.47;1530340;93;21029;-70
2022/09/18 11:53:31;;;;;;;7.25;6.55;;;;;;;21.33;67.90;98023.70;1530582;93;21133;-69
2022/09/18 11:56:28;;;;;;;6.65;5.92;;;;;;;21.06;68.53;98015.52;1536277;92;21092;-69
2022/09/18 11:59:00;;;;;;;7.67;5.83;;;;;;;21.00;69.43;98021.05;1551469;92;22595;-69
2022/09/18 12:01:42;;;;;;;6.53;5.83;;;;;;;21.10;70.33;98017.97;1555321;92;21045;-69
2022/09/18 12:04:39;;;;;;;7.03;5.90;;;;;;;21.24;70.08;98007.71;1554786;91;21024;-70
2022/09/18 12:07:33;;;;;;;8.65;6.15;;;;;;;21.33;69.28;98015.66;1555267;92;21046;-69
2022/09/18 12:10:18;;;;;;;8.70;5.80;;;;;;;21.34;68.75;97999.01;1554542;90;21152;-70
2022/09/18 12:12:53;;;;;;;8.35;7.30;;;;;;;21.47;69.06;98004.00;1556248;92;21999;-69
2022/09/18 12:15:22;;;;;;;7.70;6.00;;;;;;;21.76;68.47;98004.61;1556150;91;21062;-69